Walled Lake, Michigan
Current Conditions -  °F | °C
As of 2:53 PM on Thursday 30 Oct 2014 (Local Time) from KPTK Reporting Station
Broken Clouds Broken Clouds  
Wind Chill: 43°   Ceiling: 4300
Heat Index: 48°   Visibility: 10mi
Dew Point: 32°   Wind: 10mph
Humidity: 54%   Direction: 280°W
Pressure: 30.06"   Gusts: NA
Location:  42.54°N, 83.47°W
Report Text: KPTK 301853Z 28009KT 10SM FEW038 BKN043 BKN140 09/00 A3006 RMK AO2 SLP185 T00890000
Loading
Personal Weather Stations






























Interactive Weather Map New forecast layout! Learn more

10-Day Weather Forecast

Advertisements
Track Severe Weather on mobile